Saint-Simon-De-Rimouski, Canada
Current Conditions -  °F | °C
As of 4:37 PM on Saturday 22 Nov 2014 (Local Time) from CYYY Reporting Station
Light Snow Light Snow  
Wind Chill: -10°   Ceiling: 7000
Heat Index: -3°   Visibility: 10mi
Dew Point: -6°   Wind: 16mph
Humidity: 80%   Direction: 210°SSW
Pressure: 29.7"   Gusts: 25mph
Location:  48.2°N, 69.02°W
Report Text: CYYY 222137Z 21014G22KT 10SM -SN DRSN SCT020 BKN070 M03/M06 A2970 RMK SC3AC4 SLP059
Loading
Personal Weather Stations






























Interactive Weather Map New forecast layout! Learn more

10-Day Weather Forecast

Advertisements
Track Severe Weather on mobile